sensor_id;sensor_type;location;lat;lon;timestamp;P1;durP1;ratioP1;P2;durP2;ratioP2
611;SDS011;293;53.888;11.464;2022-11-20T00:00:09;8.40;;;7.40;;
611;SDS011;293;53.888;11.464;2022-11-20T00:02:36;8.07;;;6.88;;
611;SDS011;293;53.888;11.464;2022-11-20T00:05:04;7.95;;;6.53;;
611;SDS011;293;53.888;11.464;2022-11-20T00:07:31;8.75;;;6.78;;
611;SDS011;293;53.888;11.464;2022-11-20T00:09:58;6.25;;;5.35;;
611;SDS011;293;53.888;11.464;2022-11-20T00:12:25;6.95;;;6.25;;
611;SDS011;293;53.888;11.464;2022-11-20T00:14:52;6.50;;;5.80;;
611;SDS011;293;53.888;11.464;2022-11-20T00:17:20;6.50;;;5.90;;
611;SDS011;293;53.888;11.464;2022-11-20T00:19:47;7.65;;;6.10;;
611;SDS011;293;53.888;11.464;2022-11-20T00:22:14;9.23;;;8.13;;
611;SDS011;293;53.888;11.464;2022-11-20T00:24:41;7.80;;;6.53;;
611;SDS011;293;53.888;11.464;2022-11-20T00:27:07;8.25;;;7.28;;
611;SDS011;293;53.888;11.464;2022-11-20T00:29:34;8.35;;;6.20;;
611;SDS011;293;53.888;11.464;2022-11-20T00:32:01;6.32;;;5.45;;
611;SDS011;293;53.888;11.464;2022-11-20T00:34:29;6.45;;;3.90;;
611;SDS011;293;53.888;11.464;2022-11-20T00:36:56;3.72;;;2.83;;
611;SDS011;293;53.888;11.464;2022-11-20T00:39:23;3.40;;;2.45;;
611;SDS011;293;53.888;11.464;2022-11-20T00:41:50;3.78;;;3.35;;
611;SDS011;293;53.888;11.464;2022-11-20T00:44:17;3.80;;;3.05;;
611;SDS011;293;53.888;11.464;2022-11-20T00:46:44;3.05;;;2.83;;
611;SDS011;293;53.888;11.464;2022-11-20T00:49:10;3.00;;;2.45;;
611;SDS011;293;53.888;11.464;2022-11-20T00:51:39;2.75;;;2.35;;
611;SDS011;293;53.888;11.464;2022-11-20T00:54:06;1.20;;;1.10;;
611;SDS011;293;53.888;11.464;2022-11-20T00:56:32;1.15;;;1.05;;
611;SDS011;293;53.888;11.464;2022-11-20T00:58:59;1.25;;;1.15;;
611;SDS011;293;53.888;11.464;2022-11-20T01:01:27;1.92;;;1.83;;
611;SDS011;293;53.888;11.464;2022-11-20T01:03:55;3.17;;;2.20;;
611;SDS011;293;53.888;11.464;2022-11-20T01:06:24;3.30;;;2.60;;
611;SDS011;293;53.888;11.464;2022-11-20T01:08:54;2.65;;;2.42;;
611;SDS011;293;53.888;11.464;2022-11-20T01:11:24;5.00;;;4.30;;
611;SDS011;293;53.888;11.464;2022-11-20T01:13:52;2.80;;;2.60;;
611;SDS011;293;53.888;11.464;2022-11-20T01:16:20;3.58;;;3.28;;
611;SDS011;293;53.888;11.464;2022-11-20T01:18:50;4.10;;;3.80;;
611;SDS011;293;53.888;11.464;2022-11-20T01:21:19;3.63;;;3.20;;
611;SDS011;293;53.888;11.464;2022-11-20T01:23:47;3.42;;;2.97;;
611;SDS011;293;53.888;11.464;2022-11-20T01:26:17;2.60;;;2.40;;
611;SDS011;293;53.888;11.464;2022-11-20T01:28:45;3.15;;;2.85;;
611;SDS011;293;53.888;11.464;2022-11-20T01:31:14;3.45;;;3.15;;
611;SDS011;293;53.888;11.464;2022-11-20T01:33:44;3.05;;;2.30;;
611;SDS011;293;53.888;11.464;2022-11-20T01:36:12;2.88;;;2.65;;
611;SDS011;293;53.888;11.464;2022-11-20T01:38:40;2.90;;;2.70;;
611;SDS011;293;53.888;11.464;2022-11-20T01:41:08;3.63;;;3.08;;
611;SDS011;293;53.888;11.464;2022-11-20T01:43:57;3.28;;;2.80;;
611;SDS011;293;53.888;11.464;2022-11-20T01:46:23;1.85;;;1.63;;
611;SDS011;293;53.888;11.464;2022-11-20T01:48:51;2.70;;;2.38;;
611;SDS011;293;53.888;11.464;2022-11-20T01:51:23;3.10;;;2.83;;
611;SDS011;293;53.888;11.464;2022-11-20T01:53:55;2.65;;;2.40;;
611;SDS011;293;53.888;11.464;2022-11-20T01:56:26;2.90;;;2.47;;
611;SDS011;293;53.888;11.464;2022-11-20T01:58:58;2.92;;;2.65;;
611;SDS011;293;53.888;11.464;2022-11-20T02:01:27;3.42;;;2.08;;
611;SDS011;293;53.888;11.464;2022-11-20T02:03:54;4.10;;;3.67;;
611;SDS011;293;53.888;11.464;2022-11-20T02:06:23;2.50;;;2.20;;
611;SDS011;293;53.888;11.464;2022-11-20T02:08:52;2.60;;;1.88;;
611;SDS011;293;53.888;11.464;2022-11-20T02:11:20;2.58;;;2.13;;
611;SDS011;293;53.888;11.464;2022-11-20T02:13:47;2.58;;;2.25;;
611;SDS011;293;53.888;11.464;2022-11-20T02:16:16;2.35;;;2.15;;
611;SDS011;293;53.888;11.464;2022-11-20T02:18:47;3.25;;;2.95;;
611;SDS011;293;53.888;11.464;2022-11-20T02:21:17;2.10;;;1.90;;
611;SDS011;293;53.888;11.464;2022-11-20T02:24:07;2.05;;;1.85;;
611;SDS011;293;53.888;11.464;2022-11-20T02:26:39;2.05;;;1.70;;
611;SDS011;293;53.888;11.464;2022-11-20T02:29:13;1.13;;;0.95;;
611;SDS011;293;53.888;11.464;2022-11-20T02:31:43;1.55;;;0.85;;
611;SDS011;293;53.888;11.464;2022-11-20T02:34:11;1.58;;;1.45;;
611;SDS011;293;53.888;11.464;2022-11-20T02:36:38;0.95;;;0.70;;
611;SDS011;293;53.888;11.464;2022-11-20T02:39:09;0.60;;;0.45;;
611;SDS011;293;53.888;11.464;2022-11-20T02:41:38;1.30;;;1.05;;
611;SDS011;293;53.888;11.464;2022-11-20T02:44:05;0.50;;;0.35;;
611;SDS011;293;53.888;11.464;2022-11-20T02:46:32;0.65;;;0.65;;
611;SDS011;293;53.888;11.464;2022-11-20T02:49:00;0.60;;;0.50;;
611;SDS011;293;53.888;11.464;2022-11-20T02:51:28;0.50;;;0.50;;
611;SDS011;293;53.888;11.464;2022-11-20T02:53:55;1.52;;;1.20;;
611;SDS011;293;53.888;11.464;2022-11-20T02:56:24;1.25;;;1.15;;
611;SDS011;293;53.888;11.464;2022-11-20T02:58:51;5.03;;;4.53;;
611;SDS011;293;53.888;11.464;2022-11-20T03:01:18;2.28;;;2.08;;
611;SDS011;293;53.888;11.464;2022-11-20T03:03:45;3.28;;;2.97;;
611;SDS011;293;53.888;11.464;2022-11-20T03:06:13;5.57;;;4.50;;
611;SDS011;293;53.888;11.464;2022-11-20T03:08:40;4.30;;;3.53;;
611;SDS011;293;53.888;11.464;2022-11-20T03:11:07;6.07;;;4.90;;
611;SDS011;293;53.888;11.464;2022-11-20T03:13:36;2.63;;;2.42;;
611;SDS011;293;53.888;11.464;2022-11-20T03:16:07;6.65;;;4.30;;
611;SDS011;293;53.888;11.464;2022-11-20T03:18:36;2.53;;;2.03;;
611;SDS011;293;53.888;11.464;2022-11-20T03:21:03;6.18;;;4.95;;
611;SDS011;293;53.888;11.464;2022-11-20T03:23:31;3.17;;;2.80;;
611;SDS011;293;53.888;11.464;2022-11-20T03:26:08;3.65;;;2.83;;
611;SDS011;293;53.888;11.464;2022-11-20T03:28:38;4.78;;;4.25;;
611;SDS011;293;53.888;11.464;2022-11-20T03:31:06;4.78;;;4.15;;
611;SDS011;293;53.888;11.464;2022-11-20T03:33:34;4.90;;;4.40;;
611;SDS011;293;53.888;11.464;2022-11-20T03:36:01;6.40;;;5.80;;
611;SDS011;293;53.888;11.464;2022-11-20T03:38:29;4.50;;;4.07;;
611;SDS011;293;53.888;11.464;2022-11-20T03:41:00;7.20;;;5.70;;
611;SDS011;293;53.888;11.464;2022-11-20T03:43:29;5.88;;;5.28;;
611;SDS011;293;53.888;11.464;2022-11-20T03:45:57;5.82;;;4.97;;
611;SDS011;293;53.888;11.464;2022-11-20T03:48:24;6.80;;;5.60;;
611;SDS011;293;53.888;11.464;2022-11-20T03:50:51;6.10;;;5.30;;
611;SDS011;293;53.888;11.464;2022-11-20T03:53:19;7.50;;;6.10;;
611;SDS011;293;53.888;11.464;2022-11-20T03:55:50;9.18;;;6.93;;
611;SDS011;293;53.888;11.464;2022-11-20T03:58:17;8.23;;;7.13;;
611;SDS011;293;53.888;11.464;2022-11-20T04:00:44;9.60;;;7.70;;
611;SDS011;293;53.888;11.464;2022-11-20T04:03:12;8.50;;;6.43;;
611;SDS011;293;53.888;11.464;2022-11-20T04:05:39;6.85;;;6.03;;
611;SDS011;293;53.888;11.464;2022-11-20T04:08:06;7.07;;;6.10;;
611;SDS011;293;53.888;11.464;2022-11-20T04:10:33;7.10;;;6.40;;
611;SDS011;293;53.888;11.464;2022-11-20T04:13:00;6.45;;;5.82;;
611;SDS011;293;53.888;11.464;2022-11-20T04:15:27;8.10;;;6.28;;
611;SDS011;293;53.888;11.464;2022-11-20T04:17:54;6.57;;;5.40;;
611;SDS011;293;53.888;11.464;2022-11-20T04:20:22;9.27;;;6.90;;
611;SDS011;293;53.888;11.464;2022-11-20T04:22:49;9.40;;;8.50;;
611;SDS011;293;53.888;11.464;2022-11-20T04:25:19;6.38;;;5.68;;
611;SDS011;293;53.888;11.464;2022-11-20T04:27:46;9.60;;;7.50;;
611;SDS011;293;53.888;11.464;2022-11-20T04:30:13;6.50;;;5.80;;
611;SDS011;293;53.888;11.464;2022-11-20T04:32:40;8.35;;;7.47;;
611;SDS011;293;53.888;11.464;2022-11-20T04:35:07;6.93;;;6.25;;
611;SDS011;293;53.888;11.464;2022-11-20T04:37:35;8.23;;;6.90;;
611;SDS011;293;53.888;11.464;2022-11-20T04:40:02;8.70;;;6.95;;
611;SDS011;293;53.888;11.464;2022-11-20T04:42:30;7.63;;;6.82;;
611;SDS011;293;53.888;11.464;2022-11-20T04:44:57;8.07;;;5.75;;
611;SDS011;293;53.888;11.464;2022-11-20T04:47:24;8.00;;;6.85;;
611;SDS011;293;53.888;11.464;2022-11-20T04:49:51;8.70;;;7.10;;
611;SDS011;293;53.888;11.464;2022-11-20T04:52:18;7.50;;;6.80;;
611;SDS011;293;53.888;11.464;2022-11-20T04:54:46;9.45;;;6.72;;
611;SDS011;293;53.888;11.464;2022-11-20T04:57:13;5.82;;;4.90;;
611;SDS011;293;53.888;11.464;2022-11-20T04:59:41;6.57;;;5.97;;
611;SDS011;293;53.888;11.464;2022-11-20T05:02:08;5.68;;;5.15;;
611;SDS011;293;53.888;11.464;2022-11-20T05:04:35;7.70;;;6.72;;
611;SDS011;293;53.888;11.464;2022-11-20T05:07:02;6.05;;;5.45;;
611;SDS011;293;53.888;11.464;2022-11-20T05:09:29;7.10;;;6.20;;
611;SDS011;293;53.888;11.464;2022-11-20T05:11:58;7.63;;;6.78;;
611;SDS011;293;53.888;11.464;2022-11-20T05:14:25;6.95;;;5.53;;
611;SDS011;293;53.888;11.464;2022-11-20T05:16:52;7.55;;;5.78;;
611;SDS011;293;53.888;11.464;2022-11-20T05:19:19;7.78;;;6.10;;
611;SDS011;293;53.888;11.464;2022-11-20T05:21:46;7.45;;;6.72;;
611;SDS011;293;53.888;11.464;2022-11-20T05:24:13;6.47;;;5.82;;
611;SDS011;293;53.888;11.464;2022-11-20T05:26:39;7.85;;;6.38;;
611;SDS011;293;53.888;11.464;2022-11-20T05:29:09;7.30;;;6.60;;
611;SDS011;293;53.888;11.464;2022-11-20T05:31:36;6.18;;;5.50;;
611;SDS011;293;53.888;11.464;2022-11-20T05:34:04;7.20;;;6.50;;
611;SDS011;293;53.888;11.464;2022-11-20T05:36:31;8.35;;;6.30;;
611;SDS011;293;53.888;11.464;2022-11-20T05:38:58;7.88;;;5.72;;
611;SDS011;293;53.888;11.464;2022-11-20T05:41:25;7.60;;;5.88;;
611;SDS011;293;53.888;11.464;2022-11-20T05:43:52;6.85;;;6.15;;
611;SDS011;293;53.888;11.464;2022-11-20T05:46:20;6.40;;;4.75;;
611;SDS011;293;53.888;11.464;2022-11-20T05:48:47;9.40;;;6.30;;
611;SDS011;293;53.888;11.464;2022-11-20T05:51:15;6.63;;;5.40;;
611;SDS011;293;53.888;11.464;2022-11-20T05:53:43;7.07;;;5.80;;
611;SDS011;293;53.888;11.464;2022-11-20T05:56:10;6.25;;;5.25;;
611;SDS011;293;53.888;11.464;2022-11-20T05:58:39;6.25;;;5.45;;
611;SDS011;293;53.888;11.464;2022-11-20T06:01:07;5.80;;;5.20;;
611;SDS011;293;53.888;11.464;2022-11-20T06:03:36;4.82;;;4.30;;
611;SDS011;293;53.888;11.464;2022-11-20T06:06:04;6.18;;;5.57;;
611;SDS011;293;53.888;11.464;2022-11-20T06:08:32;5.60;;;4.75;;
611;SDS011;293;53.888;11.464;2022-11-20T06:11:02;6.75;;;4.50;;
611;SDS011;293;53.888;11.464;2022-11-20T06:13:30;5.28;;;4.57;;
611;SDS011;293;53.888;11.464;2022-11-20T06:15:57;5.93;;;5.13;;
611;SDS011;293;53.888;11.464;2022-11-20T06:18:25;15.82;;;12.23;;
611;SDS011;293;53.888;11.464;2022-11-20T06:21:00;45.08;;;31.67;;
611;SDS011;293;53.888;11.464;2022-11-20T06:23:28;77.05;;;38.40;;
611;SDS011;293;53.888;11.464;2022-11-20T06:25:55;22.92;;;11.80;;
611;SDS011;293;53.888;11.464;2022-11-20T06:28:22;7.88;;;5.82;;
611;SDS011;293;53.888;11.464;2022-11-20T06:30:49;5.60;;;4.85;;
611;SDS011;293;53.888;11.464;2022-11-20T06:33:16;5.47;;;4.35;;
611;SDS011;293;53.888;11.464;2022-11-20T06:35:43;5.38;;;4.50;;
611;SDS011;293;53.888;11.464;2022-11-20T06:38:11;5.50;;;4.50;;
611;SDS011;293;53.888;11.464;2022-11-20T06:40:39;6.85;;;5.07;;
611;SDS011;293;53.888;11.464;2022-11-20T06:43:06;5.45;;;4.40;;
611;SDS011;293;53.888;11.464;2022-11-20T06:45:33;9.02;;;4.25;;
611;SDS011;293;53.888;11.464;2022-11-20T06:48:00;7.25;;;4.53;;
611;SDS011;293;53.888;11.464;2022-11-20T06:50:27;4.85;;;4.25;;
611;SDS011;293;53.888;11.464;2022-11-20T06:52:54;4.53;;;4.00;;
611;SDS011;293;53.888;11.464;2022-11-20T06:55:22;4.80;;;4.18;;
611;SDS011;293;53.888;11.464;2022-11-20T06:57:50;5.60;;;3.30;;
611;SDS011;293;53.888;11.464;2022-11-20T07:00:17;4.82;;;4.32;;
611;SDS011;293;53.888;11.464;2022-11-20T07:02:44;5.30;;;4.40;;
611;SDS011;293;53.888;11.464;2022-11-20T07:05:11;4.10;;;3.70;;
611;SDS011;293;53.888;11.464;2022-11-20T07:07:37;6.00;;;4.60;;
611;SDS011;293;53.888;11.464;2022-11-20T07:10:05;4.90;;;4.40;;
611;SDS011;293;53.888;11.464;2022-11-20T07:12:33;4.78;;;4.22;;
611;SDS011;293;53.888;11.464;2022-11-20T07:15:00;4.72;;;4.22;;
611;SDS011;293;53.888;11.464;2022-11-20T07:17:27;5.30;;;4.40;;
611;SDS011;293;53.888;11.464;2022-11-20T07:19:54;5.55;;;3.55;;
611;SDS011;293;53.888;11.464;2022-11-20T07:22:21;5.13;;;4.00;;
611;SDS011;293;53.888;11.464;2022-11-20T07:24:48;5.60;;;4.00;;
611;SDS011;293;53.888;11.464;2022-11-20T07:27:15;4.00;;;3.60;;
611;SDS011;293;53.888;11.464;2022-11-20T07:29:43;6.45;;;5.15;;
611;SDS011;293;53.888;11.464;2022-11-20T07:32:10;5.03;;;4.45;;
611;SDS011;293;53.888;11.464;2022-11-20T07:34:37;3.85;;;3.55;;
611;SDS011;293;53.888;11.464;2022-11-20T07:37:04;6.38;;;4.97;;
611;SDS011;293;53.888;11.464;2022-11-20T07:39:30;5.30;;;4.70;;
611;SDS011;293;53.888;11.464;2022-11-20T07:41:57;4.65;;;4.25;;
611;SDS011;293;53.888;11.464;2022-11-20T07:44:24;5.00;;;4.50;;
611;SDS011;293;53.888;11.464;2022-11-20T07:46:52;5.63;;;4.75;;
611;SDS011;293;53.888;11.464;2022-11-20T07:49:19;5.18;;;4.45;;
611;SDS011;293;53.888;11.464;2022-11-20T07:51:46;4.43;;;3.67;;
611;SDS011;293;53.888;11.464;2022-11-20T07:54:16;4.95;;;4.45;;
611;SDS011;293;53.888;11.464;2022-11-20T07:56:43;4.75;;;4.25;;
611;SDS011;293;53.888;11.464;2022-11-20T07:59:10;3.55;;;3.25;;
611;SDS011;293;53.888;11.464;2022-11-20T08:01:37;5.85;;;5.05;;
611;SDS011;293;53.888;11.464;2022-11-20T08:04:05;3.83;;;3.45;;
611;SDS011;293;53.888;11.464;2022-11-20T08:06:32;5.43;;;4.93;;
611;SDS011;293;53.888;11.464;2022-11-20T08:08:59;5.82;;;4.40;;
611;SDS011;293;53.888;11.464;2022-11-20T08:11:26;4.97;;;4.47;;
611;SDS011;293;53.888;11.464;2022-11-20T08:14:10;6.10;;;4.47;;
611;SDS011;293;53.888;11.464;2022-11-20T08:16:40;5.97;;;4.90;;
611;SDS011;293;53.888;11.464;2022-11-20T08:19:10;5.10;;;4.20;;
611;SDS011;293;53.888;11.464;2022-11-20T08:21:38;5.07;;;4.57;;
611;SDS011;293;53.888;11.464;2022-11-20T08:24:05;5.03;;;4.53;;
611;SDS011;293;53.888;11.464;2022-11-20T08:26:33;5.53;;;5.03;;
611;SDS011;293;53.888;11.464;2022-11-20T08:29:00;5.22;;;4.18;;
611;SDS011;293;53.888;11.464;2022-11-20T08:31:27;6.03;;;4.90;;
611;SDS011;293;53.888;11.464;2022-11-20T08:33:54;6.47;;;4.68;;
611;SDS011;293;53.888;11.464;2022-11-20T08:36:23;7.00;;;6.00;;
611;SDS011;293;53.888;11.464;2022-11-20T08:38:51;5.85;;;5.22;;
611;SDS011;293;53.888;11.464;2022-11-20T08:41:19;5.07;;;4.57;;
611;SDS011;293;53.888;11.464;2022-11-20T08:43:53;5.95;;;5.35;;
611;SDS011;293;53.888;11.464;2022-11-20T08:46:22;5.40;;;4.90;;
611;SDS011;293;53.888;11.464;2022-11-20T08:48:49;8.57;;;5.90;;
611;SDS011;293;53.888;11.464;2022-11-20T08:51:17;6.22;;;5.63;;
611;SDS011;293;53.888;11.464;2022-11-20T08:53:47;7.35;;;6.47;;
611;SDS011;293;53.888;11.464;2022-11-20T08:56:14;6.22;;;5.63;;
611;SDS011;293;53.888;11.464;2022-11-20T08:58:42;7.13;;;5.80;;
611;SDS011;293;53.888;11.464;2022-11-20T09:01:09;5.82;;;4.70;;
611;SDS011;293;53.888;11.464;2022-11-20T09:03:36;7.30;;;5.95;;
611;SDS011;293;53.888;11.464;2022-11-20T09:06:04;6.22;;;5.07;;
611;SDS011;293;53.888;11.464;2022-11-20T09:08:32;8.40;;;5.97;;
611;SDS011;293;53.888;11.464;2022-11-20T09:11:02;7.03;;;6.30;;
611;SDS011;293;53.888;11.464;2022-11-20T09:13:29;6.10;;;5.50;;
611;SDS011;293;53.888;11.464;2022-11-20T09:15:57;7.32;;;5.38;;
611;SDS011;293;53.888;11.464;2022-11-20T09:18:25;6.90;;;6.20;;
611;SDS011;293;53.888;11.464;2022-11-20T09:20:56;6.30;;;5.70;;
611;SDS011;293;53.888;11.464;2022-11-20T09:23:23;5.57;;;4.57;;
611;SDS011;293;53.888;11.464;2022-11-20T09:25:51;4.70;;;4.15;;
611;SDS011;293;53.888;11.464;2022-11-20T09:28:21;5.47;;;5.00;;
611;SDS011;293;53.888;11.464;2022-11-20T09:30:48;6.57;;;5.97;;
611;SDS011;293;53.888;11.464;2022-11-20T09:33:15;5.70;;;5.05;;
611;SDS011;293;53.888;11.464;2022-11-20T09:35:42;6.05;;;5.45;;
611;SDS011;293;53.888;11.464;2022-11-20T09:38:10;5.85;;;5.18;;
611;SDS011;293;53.888;11.464;2022-11-20T09:40:39;6.05;;;5.55;;
611;SDS011;293;53.888;11.464;2022-11-20T09:43:11;5.35;;;4.68;;
611;SDS011;293;53.888;11.464;2022-11-20T09:45:47;6.15;;;5.57;;
611;SDS011;293;53.888;11.464;2022-11-20T09:48:29;5.60;;;5.05;;
611;SDS011;293;53.888;11.464;2022-11-20T09:51:05;6.68;;;5.53;;
611;SDS011;293;53.888;11.464;2022-11-20T09:53:42;6.90;;;4.35;;
611;SDS011;293;53.888;11.464;2022-11-20T09:56:17;5.13;;;4.28;;
611;SDS011;293;53.888;11.464;2022-11-20T09:58:47;4.55;;;4.15;;
611;SDS011;293;53.888;11.464;2022-11-20T10:01:18;3.85;;;3.55;;
611;SDS011;293;53.888;11.464;2022-11-20T10:03:51;3.70;;;3.40;;
611;SDS011;293;53.888;11.464;2022-11-20T10:06:24;4.65;;;4.25;;
611;SDS011;293;53.888;11.464;2022-11-20T10:08:58;3.80;;;3.50;;
611;SDS011;293;53.888;11.464;2022-11-20T10:11:32;5.00;;;4.47;;
611;SDS011;293;53.888;11.464;2022-11-20T10:14:07;9.95;;;7.60;;
611;SDS011;293;53.888;11.464;2022-11-20T10:16:46;26.02;;;13.25;;
611;SDS011;293;53.888;11.464;2022-11-20T10:19:34;5.72;;;5.03;;
611;SDS011;293;53.888;11.464;2022-11-20T10:22:17;4.80;;;3.63;;
611;SDS011;293;53.888;11.464;2022-11-20T10:24:56;4.32;;;3.92;;
611;SDS011;293;53.888;11.464;2022-11-20T10:27:36;4.65;;;4.25;;
611;SDS011;293;53.888;11.464;2022-11-20T10:30:23;3.47;;;3.10;;
611;SDS011;293;53.888;11.464;2022-11-20T10:32:52;4.47;;;3.85;;
611;SDS011;293;53.888;11.464;2022-11-20T10:35:25;4.32;;;3.97;;
611;SDS011;293;53.888;11.464;2022-11-20T10:37:55;4.38;;;3.97;;
611;SDS011;293;53.888;11.464;2022-11-20T10:40:27;3.92;;;3.50;;
611;SDS011;293;53.888;11.464;2022-11-20T10:42:59;4.35;;;3.90;;
611;SDS011;293;53.888;11.464;2022-11-20T10:45:35;3.80;;;3.50;;
611;SDS011;293;53.888;11.464;2022-11-20T10:48:14;4.55;;;3.85;;
611;SDS011;293;53.888;11.464;2022-11-20T10:50:57;2.70;;;2.50;;
611;SDS011;293;53.888;11.464;2022-11-20T10:53:44;3.63;;;2.40;;
611;SDS011;293;53.888;11.464;2022-11-20T10:56:19;2.38;;;2.17;;
611;SDS011;293;53.888;11.464;2022-11-20T10:58:50;2.58;;;2.20;;
611;SDS011;293;53.888;11.464;2022-11-20T11:01:26;1.95;;;1.75;;
611;SDS011;293;53.888;11.464;2022-11-20T11:03:54;1.95;;;1.80;;
611;SDS011;293;53.888;11.464;2022-11-20T11:06:25;2.97;;;2.13;;
611;SDS011;293;53.888;11.464;2022-11-20T11:08:59;2.42;;;2.22;;
611;SDS011;293;53.888;11.464;2022-11-20T11:11:37;2.30;;;2.10;;
611;SDS011;293;53.888;11.464;2022-11-20T11:14:05;2.35;;;2.15;;
611;SDS011;293;53.888;11.464;2022-11-20T11:16:33;2.90;;;2.38;;
611;SDS011;293;53.888;11.464;2022-11-20T11:19:05;46.53;;;4.45;;
611;SDS011;293;53.888;11.464;2022-11-20T11:21:37;3.92;;;3.50;;
611;SDS011;293;53.888;11.464;2022-11-20T11:24:14;4.78;;;4.20;;
611;SDS011;293;53.888;11.464;2022-11-20T11:26:50;3.92;;;3.53;;
611;SDS011;293;53.888;11.464;2022-11-20T11:29:22;3.25;;;3.05;;
611;SDS011;293;53.888;11.464;2022-11-20T11:32:02;3.80;;;3.45;;
611;SDS011;293;53.888;11.464;2022-11-20T11:34:32;3.30;;;3.00;;
611;SDS011;293;53.888;11.464;2022-11-20T11:36:59;3.15;;;2.85;;
611;SDS011;293;53.888;11.464;2022-11-20T11:39:28;3.47;;;3.17;;
611;SDS011;293;53.888;11.464;2022-11-20T11:41:56;2.40;;;2.20;;
611;SDS011;293;53.888;11.464;2022-11-20T11:44:25;2.00;;;1.80;;
611;SDS011;293;53.888;11.464;2022-11-20T11:47:17;1.92;;;1.73;;
611;SDS011;293;53.888;11.464;2022-11-20T11:49:50;1.98;;;1.80;;
611;SDS011;293;53.888;11.464;2022-11-20T11:52:27;2.50;;;2.15;;
611;SDS011;293;53.888;11.464;2022-11-20T11:54:57;2.65;;;2.45;;
611;SDS011;293;53.888;11.464;2022-11-20T11:57:28;4.57;;;2.78;;
611;SDS011;293;53.888;11.464;2022-11-20T12:00:03;5.72;;;2.53;;
611;SDS011;293;53.888;11.464;2022-11-20T12:02:34;2.45;;;2.25;;
611;SDS011;293;53.888;11.464;2022-11-20T12:05:10;5.47;;;4.85;;
611;SDS011;293;53.888;11.464;2022-11-20T12:07:45;6.30;;;4.85;;
611;SDS011;293;53.888;11.464;2022-11-20T12:10:18;13.52;;;10.90;;
611;SDS011;293;53.888;11.464;2022-11-20T12:12:49;30.25;;;18.13;;
611;SDS011;293;53.888;11.464;2022-11-20T12:15:23;40.42;;;18.17;;
611;SDS011;293;53.888;11.464;2022-11-20T12:17:54;8.27;;;5.53;;
611;SDS011;293;53.888;11.464;2022-11-20T12:20:24;3.65;;;2.50;;
611;SDS011;293;53.888;11.464;2022-11-20T12:22:56;3.05;;;2.60;;
611;SDS011;293;53.888;11.464;2022-11-20T12:25:31;2.17;;;1.85;;
611;SDS011;293;53.888;11.464;2022-11-20T12:28:07;3.50;;;2.10;;
611;SDS011;293;53.888;11.464;2022-11-20T12:31:07;6.22;;;5.47;;
611;SDS011;293;53.888;11.464;2022-11-20T12:33:54;9.80;;;7.75;;
611;SDS011;293;53.888;11.464;2022-11-20T12:36:42;13.95;;;9.57;;
611;SDS011;293;53.888;11.464;2022-11-20T12:39:28;12.75;;;10.18;;
611;SDS011;293;53.888;11.464;2022-11-20T12:42:04;6.20;;;5.57;;
611;SDS011;293;53.888;11.464;2022-11-20T12:45:10;8.02;;;3.90;;
611;SDS011;293;53.888;11.464;2022-11-20T12:50:57;3.97;;;3.00;;
611;SDS011;293;53.888;11.464;2022-11-20T12:53:41;3.25;;;2.60;;
611;SDS011;293;53.888;11.464;2022-11-20T12:56:18;4.63;;;4.22;;
611;SDS011;293;53.888;11.464;2022-11-20T12:58:54;5.05;;;4.65;;
611;SDS011;293;53.888;11.464;2022-11-20T13:01:36;5.10;;;4.25;;
611;SDS011;293;53.888;11.464;2022-11-20T13:07:13;5.28;;;4.57;;
611;SDS011;293;53.888;11.464;2022-11-20T13:09:45;4.90;;;4.40;;
611;SDS011;293;53.888;11.464;2022-11-20T13:12:14;5.47;;;4.45;;
611;SDS011;293;53.888;11.464;2022-11-20T13:14:47;4.03;;;3.55;;
611;SDS011;293;53.888;11.464;2022-11-20T13:17:22;4.93;;;4.10;;
611;SDS011;293;53.888;11.464;2022-11-20T13:19:59;4.85;;;4.30;;
611;SDS011;293;53.888;11.464;2022-11-20T13:22:26;5.15;;;4.60;;
611;SDS011;293;53.888;11.464;2022-11-20T13:24:56;4.30;;;3.80;;
611;SDS011;293;53.888;11.464;2022-11-20T13:27:23;5.82;;;5.00;;
611;SDS011;293;53.888;11.464;2022-11-20T13:30:00;5.47;;;4.97;;
611;SDS011;293;53.888;11.464;2022-11-20T13:32:47;5.45;;;4.97;;
611;SDS011;293;53.888;11.464;2022-11-20T13:35:23;7.63;;;4.90;;
611;SDS011;293;53.888;11.464;2022-11-20T13:38:02;4.40;;;4.05;;
611;SDS011;293;53.888;11.464;2022-11-20T13:40:32;5.22;;;4.47;;
611;SDS011;293;53.888;11.464;2022-11-20T13:43:04;6.28;;;4.93;;
611;SDS011;293;53.888;11.464;2022-11-20T13:45:40;4.90;;;4.50;;
611;SDS011;293;53.888;11.464;2022-11-20T13:48:18;5.88;;;5.28;;
611;SDS011;293;53.888;11.464;2022-11-20T13:50:50;5.65;;;4.90;;
611;SDS011;293;53.888;11.464;2022-11-20T13:53:43;5.97;;;4.70;;
611;SDS011;293;53.888;11.464;2022-11-20T13:56:22;6.47;;;5.72;;
611;SDS011;293;53.888;11.464;2022-11-20T13:58:56;8.15;;;6.40;;
611;SDS011;293;53.888;11.464;2022-11-20T14:01:29;9.40;;;6.65;;
611;SDS011;293;53.888;11.464;2022-11-20T14:03:57;10.05;;;8.75;;
611;SDS011;293;53.888;11.464;2022-11-20T14:06:25;11.43;;;10.32;;
611;SDS011;293;53.888;11.464;2022-11-20T14:08:54;14.10;;;12.77;;
611;SDS011;293;53.888;11.464;2022-11-20T14:11:23;14.05;;;11.25;;
611;SDS011;293;53.888;11.464;2022-11-20T14:13:55;21.20;;;15.85;;
611;SDS011;293;53.888;11.464;2022-11-20T14:16:24;9.57;;;8.57;;
611;SDS011;293;53.888;11.464;2022-11-20T14:18:52;8.45;;;7.35;;
611;SDS011;293;53.888;11.464;2022-11-20T14:21:24;6.90;;;6.20;;
611;SDS011;293;53.888;11.464;2022-11-20T14:23:54;6.53;;;5.93;;
611;SDS011;293;53.888;11.464;2022-11-20T14:26:31;5.25;;;4.68;;
611;SDS011;293;53.888;11.464;2022-11-20T14:28:58;6.15;;;5.35;;
611;SDS011;293;53.888;11.464;2022-11-20T14:31:26;7.40;;;6.70;;
611;SDS011;293;53.888;11.464;2022-11-20T14:33:54;8.27;;;7.15;;
611;SDS011;293;53.888;11.464;2022-11-20T14:36:22;8.02;;;7.22;;
611;SDS011;293;53.888;11.464;2022-11-20T14:38:51;5.95;;;5.45;;
611;SDS011;293;53.888;11.464;2022-11-20T14:41:19;5.32;;;4.82;;
611;SDS011;293;53.888;11.464;2022-11-20T14:43:50;17.05;;;14.73;;
611;SDS011;293;53.888;11.464;2022-11-20T14:46:20;9.23;;;8.32;;
611;SDS011;293;53.888;11.464;2022-11-20T14:48:48;33.45;;;20.17;;
611;SDS011;293;53.888;11.464;2022-11-20T14:51:24;5.47;;;4.97;;
611;SDS011;293;53.888;11.464;2022-11-20T14:53:54;4.68;;;3.85;;
611;SDS011;293;53.888;11.464;2022-11-20T14:56:21;4.40;;;4.00;;
611;SDS011;293;53.888;11.464;2022-11-20T14:58:56;5.47;;;4.95;;
611;SDS011;293;53.888;11.464;2022-11-20T15:01:26;4.45;;;4.05;;
611;SDS011;293;53.888;11.464;2022-11-20T15:03:59;5.63;;;4.90;;
611;SDS011;293;53.888;11.464;2022-11-20T15:06:27;5.38;;;4.88;;
611;SDS011;293;53.888;11.464;2022-11-20T15:08:56;7.57;;;6.82;;
611;SDS011;293;53.888;11.464;2022-11-20T15:11:25;7.82;;;6.55;;
611;SDS011;293;53.888;11.464;2022-11-20T15:13:57;5.10;;;4.55;;
611;SDS011;293;53.888;11.464;2022-11-20T15:16:28;7.60;;;6.15;;
611;SDS011;293;53.888;11.464;2022-11-20T15:18:56;8.57;;;6.75;;
611;SDS011;293;53.888;11.464;2022-11-20T15:21:23;10.77;;;7.53;;
611;SDS011;293;53.888;11.464;2022-11-20T15:23:50;10.07;;;7.82;;
611;SDS011;293;53.888;11.464;2022-11-20T15:26:20;9.18;;;6.75;;
611;SDS011;293;53.888;11.464;2022-11-20T15:28:49;6.43;;;5.80;;
611;SDS011;293;53.888;11.464;2022-11-20T15:31:18;6.53;;;5.75;;
611;SDS011;293;53.888;11.464;2022-11-20T15:33:47;6.72;;;5.47;;
611;SDS011;293;53.888;11.464;2022-11-20T15:36:15;6.03;;;5.30;;
611;SDS011;293;53.888;11.464;2022-11-20T15:38:42;8.75;;;7.05;;
611;SDS011;293;53.888;11.464;2022-11-20T15:41:09;7.15;;;6.28;;
611;SDS011;293;53.888;11.464;2022-11-20T15:43:36;9.23;;;6.75;;
611;SDS011;293;53.888;11.464;2022-11-20T15:46:04;9.80;;;6.40;;
611;SDS011;293;53.888;11.464;2022-11-20T15:48:36;10.80;;;8.18;;
611;SDS011;293;53.888;11.464;2022-11-20T15:51:06;9.90;;;7.50;;
611;SDS011;293;53.888;11.464;2022-11-20T15:53:47;9.68;;;6.63;;